Time;durP1;ratioP1;P1;durP2;ratioP2;P2;SDS_P1;SDS_P2;PMS_P1;PMS_P2;Temp;Humidity;BMP_temperature;BMP_pressure;BME280_temperature;BME280_humidity;BME280_pressure;Samples;Min_cycle;Max_cycle;Signal;HPM_P1;HPM_P2
2023/12/11 00:01:02;;;;;;;26.90;3.20;;;7.90;99.90;;;;;;5072550;28;20040;-61
2023/12/11 00:03:27;;;;;;;28.08;4.43;;;8.30;99.90;;;;;;5073578;28;20128;-60
2023/12/11 00:05:53;;;;;;;26.90;3.55;;;8.10;99.90;;;;;;5073633;28;20119;-60
2023/12/11 00:08:19;;;;;;;30.00;4.18;;;8.20;99.90;;;;;;5072221;28;20040;-61
2023/12/11 00:10:44;;;;;;;37.47;5.28;;;7.80;99.90;;;;;;5073699;28;20036;-60
2023/12/11 00:13:10;;;;;;;26.08;4.25;;;7.90;99.90;;;;;;5073749;28;20048;-60
2023/12/11 00:15:36;;;;;;;32.00;3.95;;;7.90;99.90;;;;;;5072016;28;20663;-60
2023/12/11 00:18:02;;;;;;;38.90;5.72;;;7.90;99.90;;;;;;5073450;28;20100;-60
2023/12/11 00:20:28;;;;;;;27.50;4.57;;;7.90;99.90;;;;;;5073520;28;20500;-60
2023/12/11 00:22:54;;;;;;;29.58;4.20;;;7.80;99.90;;;;;;5073286;28;20052;-60
2023/12/11 00:25:20;;;;;;;33.55;4.07;;;7.90;99.90;;;;;;5071844;28;20041;-61
2023/12/11 00:27:45;;;;;;;32.05;5.30;;;8.10;99.90;;;;;;5073082;28;20047;-60
2023/12/11 00:30:12;;;;;;;31.55;4.00;;;8.20;99.90;;;;;;5073028;28;20052;-60
2023/12/11 00:32:38;;;;;;;22.27;4.57;;;7.80;99.90;;;;;;5072804;28;20131;-60
2023/12/11 00:35:04;;;;;;;28.10;4.38;;;7.80;99.90;;;;;;5072988;28;20075;-61
2023/12/11 00:37:30;;;;;;;38.67;4.63;;;8.30;99.90;;;;;;5071791;28;20032;-60
2023/12/11 00:39:56;;;;;;;32.22;4.78;;;8.20;99.90;;;;;;5073143;28;20036;-61
2023/12/11 00:42:21;;;;;;;33.88;3.75;;;8.00;99.90;;;;;;5072651;28;20048;-61
2023/12/11 00:44:47;;;;;;;33.80;5.55;;;7.90;99.90;;;;;;5073104;28;20055;-61
2023/12/11 00:47:13;;;;;;;35.33;6.03;;;7.90;99.90;;;;;;5072717;28;20040;-61
2023/12/11 00:49:38;;;;;;;39.65;9.25;;;8.30;99.90;;;;;;5071650;28;20073;-61
2023/12/11 00:52:05;;;;;;;35.22;6.90;;;8.30;99.90;;;;;;5072932;28;20051;-60
2023/12/11 00:54:30;;;;;;;40.53;6.55;;;8.00;99.90;;;;;;5072437;28;20512;-61
2023/12/11 00:56:56;;;;;;;30.50;4.97;;;8.10;99.90;;;;;;5072530;28;20055;-61
2023/12/11 00:59:22;;;;;;;30.45;7.28;;;8.10;99.90;;;;;;5071088;28;20079;-60
2023/12/11 01:01:48;;;;;;;29.67;5.30;;;8.40;99.90;;;;;;5072484;28;20041;-61
2023/12/11 01:04:14;;;;;;;30.60;5.43;;;8.40;99.90;;;;;;5072466;28;20028;-61
2023/12/11 01:06:41;;;;;;;37.97;5.82;;;8.40;99.90;;;;;;5071143;28;20098;-60
2023/12/11 01:09:07;;;;;;;41.72;6.50;;;8.30;99.90;;;;;;5071224;28;20040;-61
2023/12/11 01:11:32;;;;;;;38.45;4.82;;;8.50;99.90;;;;;;5072619;28;20055;-60
2023/12/11 01:13:58;;;;;;;36.45;4.75;;;8.20;99.90;;;;;;5072597;28;20052;-61
2023/12/11 01:16:24;;;;;;;37.80;5.05;;;8.30;99.90;;;;;;5072497;28;20044;-61
2023/12/11 01:18:50;;;;;;;34.13;5.00;;;8.40;99.90;;;;;;5071108;28;20033;-60
2023/12/11 01:21:16;;;;;;;38.72;5.72;;;8.40;99.90;;;;;;5072074;28;20491;-61
2023/12/11 01:23:42;;;;;;;36.20;6.03;;;8.30;99.90;;;;;;5072173;28;20045;-61
2023/12/11 01:26:08;;;;;;;41.05;5.47;;;8.60;99.90;;;;;;5072059;28;20451;-60
2023/12/11 01:28:34;;;;;;;34.28;5.10;;;8.30;99.90;;;;;;5072425;28;20397;-60
2023/12/11 01:31:00;;;;;;;35.47;4.68;;;8.40;99.90;;;;;;5072006;28;20036;-59
2023/12/11 01:33:26;;;;;;;35.08;5.50;;;8.50;99.90;;;;;;5072052;28;20057;-61
2023/12/11 01:35:51;;;;;;;35.53;5.10;;;8.60;99.90;;;;;;5072105;28;20558;-61
2023/12/11 01:38:17;;;;;;;30.63;4.32;;;8.50;99.90;;;;;;5072098;28;20039;-61
2023/12/11 01:40:43;;;;;;;33.00;4.85;;;8.30;99.90;;;;;;5071941;28;20040;-61
2023/12/11 01:43:17;;;;;;;30.88;5.93;;;8.40;99.90;;;;;;5072223;28;20162;-60
2023/12/11 01:45:43;;;;;;;40.03;6.18;;;8.50;99.90;;;;;;5071881;28;20044;-60
2023/12/11 01:48:10;;;;;;;32.50;5.90;;;8.20;99.90;;;;;;5070237;28;20044;-60
2023/12/11 01:50:37;;;;;;;32.65;5.30;;;8.60;99.90;;;;;;5072010;28;20109;-60
2023/12/11 01:53:03;;;;;;;26.38;4.78;;;8.40;99.90;;;;;;5071890;28;20492;-60
2023/12/11 01:55:31;;;;;;;32.67;5.88;;;8.40;99.90;;;;;;5071972;28;20122;-60
2023/12/11 01:57:59;;;;;;;31.70;5.00;;;8.30;99.90;;;;;;5071707;28;20048;-60
2023/12/11 02:00:25;;;;;;;36.85;5.47;;;8.20;99.90;;;;;;5070909;28;20036;-60
2023/12/11 02:02:51;;;;;;;28.63;4.70;;;8.60;99.90;;;;;;5071853;28;20257;-61
2023/12/11 02:05:17;;;;;;;31.10;5.35;;;8.50;99.90;;;;;;5071749;28;20050;-60
2023/12/11 02:07:43;;;;;;;39.13;5.47;;;8.60;99.90;;;;;;5071673;28;20087;-60
2023/12/11 02:10:09;;;;;;;25.73;3.22;;;8.60;99.90;;;;;;5071736;28;20552;-61
2023/12/11 02:12:35;;;;;;;23.27;3.65;;;8.10;99.90;;;;;;5072001;28;20107;-61
2023/12/11 02:15:01;;;;;;;21.98;3.47;;;8.10;99.90;;;;;;5071721;28;20040;-60
2023/12/11 02:17:27;;;;;;;33.03;3.30;;;8.00;99.90;;;;;;5071641;28;20370;-60
2023/12/11 02:19:53;;;;;;;25.98;3.45;;;8.20;99.90;;;;;;5071639;28;20047;-60
2023/12/11 02:22:18;;;;;;;24.77;4.22;;;8.50;99.90;;;;;;5071582;28;20072;-60
2023/12/11 02:24:57;;;;;;;24.88;3.60;;;8.20;99.90;;;;;;5071598;28;20520;-59
2023/12/11 02:27:24;;;;;;;30.35;4.43;;;8.10;99.90;;;;;;5071453;28;20041;-60
2023/12/11 02:29:53;;;;;;;27.23;4.20;;;8.40;99.90;;;;;;5071619;28;20115;-60
2023/12/11 02:32:19;;;;;;;21.67;4.63;;;8.20;99.90;;;;;;5071433;28;20048;-60
2023/12/11 02:34:47;;;;;;;25.35;3.85;;;8.00;99.90;;;;;;5071372;28;20127;-61
2023/12/11 02:37:13;;;;;;;19.08;2.90;;;8.30;99.90;;;;;;5070442;28;20055;-60
2023/12/11 02:39:39;;;;;;;27.08;4.65;;;8.20;99.90;;;;;;5071741;28;20041;-60
2023/12/11 02:42:05;;;;;;;34.63;5.07;;;8.60;99.90;;;;;;5071352;28;20434;-59
2023/12/11 02:44:30;;;;;;;26.38;3.88;;;8.50;99.90;;;;;;5071670;28;20048;-60
2023/12/11 02:46:56;;;;;;;34.20;4.80;;;8.20;99.90;;;;;;5071318;28;20032;-60
2023/12/11 02:49:22;;;;;;;27.75;5.35;;;8.50;99.90;;;;;;5071545;28;20166;-60
2023/12/11 02:51:47;;;;;;;24.17;4.28;;;8.30;99.90;;;;;;5071270;28;20374;-60
2023/12/11 02:54:13;;;;;;;31.00;5.57;;;8.50;99.90;;;;;;5071472;28;20040;-61
2023/12/11 02:56:40;;;;;;;25.25;3.92;;;8.60;99.90;;;;;;5071533;28;20354;-61
2023/12/11 02:59:06;;;;;;;29.00;5.30;;;8.10;99.90;;;;;;5071472;28;20389;-60
2023/12/11 03:01:31;;;;;;;34.72;5.57;;;8.60;99.90;;;;;;5074923;28;20051;-61
2023/12/11 03:03:57;;;;;;;33.85;5.53;;;8.20;99.90;;;;;;5074460;28;20451;-61
2023/12/11 03:06:23;;;;;;;36.60;5.43;;;8.40;99.90;;;;;;5074698;28;20076;-61
2023/12/11 03:08:49;;;;;;;29.65;3.97;;;8.40;99.90;;;;;;5074406;28;20377;-61
2023/12/11 03:11:14;;;;;;;36.90;6.40;;;8.60;99.90;;;;;;5074559;28;20036;-61
2023/12/11 03:13:40;;;;;;;33.25;4.78;;;8.30;99.90;;;;;;5073151;28;20048;-60
2023/12/11 03:16:06;;;;;;;27.30;3.88;;;8.20;99.90;;;;;;5074450;28;20086;-60
2023/12/11 03:18:32;;;;;;;36.42;6.47;;;8.20;99.90;;;;;;5074545;28;20044;-60
2023/12/11 03:20:58;;;;;;;36.72;4.32;;;8.50;99.90;;;;;;5074682;28;20559;-60
2023/12/11 03:23:24;;;;;;;25.38;3.30;;;8.40;99.90;;;;;;5074722;28;20373;-60
2023/12/11 03:25:49;;;;;;;23.58;4.97;;;8.40;99.90;;;;;;5074519;28;20043;-59
2023/12/11 03:28:15;;;;;;;36.10;4.78;;;8.50;99.90;;;;;;5074435;28;20443;-60
2023/12/11 03:30:41;;;;;;;41.92;6.40;;;8.20;99.90;;;;;;5074357;28;20052;-61
2023/12/11 03:33:07;;;;;;;35.95;5.88;;;8.20;99.90;;;;;;5072906;28;20056;-61
2023/12/11 03:35:32;;;;;;;37.88;6.32;;;8.50;99.90;;;;;;5074130;28;20067;-60
2023/12/11 03:37:58;;;;;;;30.38;4.63;;;8.40;99.90;;;;;;5074229;28;20040;-60
2023/12/11 03:40:24;;;;;;;41.40;5.53;;;8.60;99.90;;;;;;5074091;28;20035;-60
2023/12/11 03:42:49;;;;;;;29.70;4.50;;;8.40;99.90;;;;;;5073990;28;20129;-60
2023/12/11 03:45:15;;;;;;;26.13;4.50;;;8.50;99.90;;;;;;5073977;28;20075;-60
2023/12/11 03:47:41;;;;;;;40.63;5.80;;;8.20;99.90;;;;;;5074038;28;20045;-60
2023/12/11 03:50:07;;;;;;;35.00;6.22;;;8.20;99.90;;;;;;5072647;28;20115;-60
2023/12/11 03:52:32;;;;;;;29.48;5.15;;;8.60;99.90;;;;;;5072587;28;20053;-60
2023/12/11 03:54:58;;;;;;;35.70;4.70;;;8.40;99.90;;;;;;5074017;28;20043;-60
2023/12/11 03:57:24;;;;;;;40.42;5.00;;;8.30;99.90;;;;;;5072582;28;20044;-60
2023/12/11 03:59:49;;;;;;;47.95;6.75;;;8.30;99.90;;;;;;5074006;28;20542;-60
2023/12/11 04:02:15;;;;;;;43.00;5.45;;;8.30;99.90;;;;;;5073932;28;20033;-60
2023/12/11 04:04:41;;;;;;;37.15;4.38;;;8.30;99.90;;;;;;5073956;28;20037;-60
2023/12/11 04:07:06;;;;;;;34.17;5.68;;;8.30;99.90;;;;;;5073679;28;20048;-60
2023/12/11 04:09:32;;;;;;;44.70;5.97;;;8.40;99.90;;;;;;5072549;28;20387;-60
2023/12/11 04:11:58;;;;;;;39.22;5.43;;;8.60;99.90;;;;;;5073306;28;20045;-60
2023/12/11 04:14:24;;;;;;;34.40;6.15;;;8.30;99.90;;;;;;5073346;28;20055;-61
2023/12/11 04:16:49;;;;;;;33.20;5.13;;;8.70;99.90;;;;;;5073348;28;20123;-60
2023/12/11 04:19:15;;;;;;;28.15;5.00;;;8.70;99.90;;;;;;5073552;28;20087;-60
2023/12/11 04:21:41;;;;;;;39.95;5.63;;;8.40;99.90;;;;;;5072227;28;20557;-60
2023/12/11 04:24:06;;;;;;;38.33;5.63;;;8.70;99.90;;;;;;5073489;28;20044;-60
2023/12/11 04:26:32;;;;;;;44.78;5.45;;;8.50;99.90;;;;;;5073312;28;20040;-61
2023/12/11 04:28:58;;;;;;;50.63;6.30;;;8.70;99.90;;;;;;5073194;28;20040;-61
2023/12/11 04:31:24;;;;;;;39.95;5.90;;;8.60;99.90;;;;;;5072874;28;20041;-59
2023/12/11 04:33:50;;;;;;;35.95;5.75;;;8.60;99.90;;;;;;5073235;28;20044;-60
2023/12/11 04:36:16;;;;;;;40.30;5.88;;;8.40;99.90;;;;;;5073363;28;20044;-61
2023/12/11 04:38:41;;;;;;;37.78;5.95;;;8.60;99.90;;;;;;5072921;28;20048;-60
2023/12/11 04:41:07;;;;;;;31.98;5.55;;;8.40;99.90;;;;;;5073006;28;20037;-60
2023/12/11 04:43:33;;;;;;;49.60;6.35;;;8.30;99.90;;;;;;5073159;28;20040;-61
2023/12/11 04:46:02;;;;;;;41.88;6.80;;;8.60;99.90;;;;;;5072674;28;20040;-61
2023/12/11 04:48:27;;;;;;;38.45;6.32;;;8.40;99.90;;;;;;5072984;28;20435;-61
2023/12/11 04:50:53;;;;;;;43.03;5.78;;;8.60;99.90;;;;;;5072791;28;20041;-60
2023/12/11 04:53:19;;;;;;;43.58;7.38;;;8.70;99.90;;;;;;5071443;28;20045;-60
2023/12/11 04:55:45;;;;;;;33.38;5.55;;;8.70;99.90;;;;;;5072624;28;20044;-60
2023/12/11 04:58:10;;;;;;;33.10;5.40;;;8.70;99.90;;;;;;5072897;28;20036;-61
2023/12/11 05:00:36;;;;;;;49.35;7.40;;;8.40;99.90;;;;;;5072495;28;20092;-61
2023/12/11 05:03:02;;;;;;;45.80;7.03;;;8.70;99.90;;;;;;5071256;28;20048;-60
2023/12/11 05:05:28;;;;;;;41.17;5.93;;;8.50;99.90;;;;;;5071197;28;20090;-60
2023/12/11 05:07:53;;;;;;;34.75;5.43;;;8.40;99.90;;;;;;5072520;28;20044;-60
2023/12/11 05:10:19;;;;;;;38.25;6.82;;;8.60;99.90;;;;;;5072436;28;20097;-61
2023/12/11 05:12:45;;;;;;;33.10;5.93;;;8.40;99.90;;;;;;5072412;28;20040;-61
2023/12/11 05:15:10;;;;;;;46.10;8.60;;;8.30;99.90;;;;;;5072493;28;20481;-61
2023/12/11 05:17:36;;;;;;;31.58;5.70;;;8.40;99.90;;;;;;5072441;28;20032;-60
2023/12/11 05:20:02;;;;;;;38.05;6.45;;;8.50;99.90;;;;;;5071040;28;20403;-61
2023/12/11 05:22:28;;;;;;;35.83;5.45;;;8.40;99.90;;;;;;5071774;28;20064;-60
2023/12/11 05:24:54;;;;;;;39.58;5.85;;;8.30;99.90;;;;;;5072506;28;20152;-60
2023/12/11 05:27:19;;;;;;;39.28;5.82;;;8.50;99.90;;;;;;5072317;28;20044;-61
2023/12/11 05:29:45;;;;;;;32.28;5.28;;;8.50;99.90;;;;;;5072110;28;20084;-62
2023/12/11 05:32:11;;;;;;;42.25;5.55;;;8.30;99.90;;;;;;5071823;28;20102;-61
2023/12/11 05:34:37;;;;;;;29.33;5.13;;;8.30;99.90;;;;;;5072114;28;20036;-61
2023/12/11 05:37:02;;;;;;;39.30;6.00;;;8.50;99.90;;;;;;5072202;28;20528;-60
2023/12/11 05:39:28;;;;;;;40.75;5.78;;;8.50;99.90;;;;;;5072089;28;20040;-61
2023/12/11 05:41:54;;;;;;;32.15;7.00;;;8.30;99.90;;;;;;5072060;28;20037;-61
2023/12/11 05:44:19;;;;;;;34.42;5.65;;;8.30;99.90;;;;;;5071875;28;20072;-61
2023/12/11 05:46:46;;;;;;;30.23;5.25;;;8.30;99.90;;;;;;5072127;28;20040;-61
2023/12/11 05:49:12;;;;;;;31.05;6.03;;;8.50;99.90;;;;;;5070651;28;20468;-60
2023/12/11 05:51:38;;;;;;;29.30;4.47;;;8.40;99.90;;;;;;5071853;28;20041;-61
2023/12/11 05:54:03;;;;;;;45.10;6.30;;;8.30;99.90;;;;;;5071742;28;20079;-60
2023/12/11 05:56:30;;;;;;;34.50;5.70;;;8.40;99.90;;;;;;5071847;28;20032;-61
2023/12/11 05:58:56;;;;;;;33.65;4.97;;;8.40;99.90;;;;;;5071749;28;20477;-61
2023/12/11 06:01:21;;;;;;;33.60;4.90;;;8.10;99.90;;;;;;5072051;28;20102;-61
2023/12/11 06:03:47;;;;;;;30.40;5.30;;;8.50;99.90;;;;;;5071768;28;20036;-60
2023/12/11 06:06:16;;;;;;;36.15;6.55;;;8.40;99.90;;;;;;5071878;28;20037;-61
2023/12/11 06:08:45;;;;;;;27.23;3.92;;;8.40;99.90;;;;;;5072076;28;20049;-60
2023/12/11 06:11:11;;;;;;;35.85;5.55;;;8.10;99.90;;;;;;5071715;28;20037;-61
2023/12/11 06:13:36;;;;;;;32.70;4.20;;;8.10;99.90;;;;;;5071617;28;20469;-60
2023/12/11 06:16:02;;;;;;;28.67;3.95;;;8.10;99.90;;;;;;5071938;28;20469;-60
2023/12/11 06:18:28;;;;;;;31.23;5.22;;;8.20;99.90;;;;;;5071838;28;20447;-61
2023/12/11 06:20:54;;;;;;;35.40;5.75;;;8.10;99.90;;;;;;5071853;28;20103;-61
2023/12/11 06:23:22;;;;;;;31.77;4.40;;;8.30;99.90;;;;;;5070691;28;20032;-60
2023/12/11 06:25:47;;;;;;;26.13;4.63;;;8.20;99.90;;;;;;5071521;28;20059;-60
2023/12/11 06:28:13;;;;;;;34.03;5.22;;;8.10;99.90;;;;;;5053737;28;20369;-61
2023/12/11 06:30:39;;;;;;;34.78;5.72;;;8.00;99.90;;;;;;5071723;28;20037;-60
2023/12/11 06:33:05;;;;;;;27.10;4.10;;;8.40;99.90;;;;;;5071457;28;20056;-60
2023/12/11 06:35:30;;;;;;;32.35;5.78;;;8.10;99.90;;;;;;5075226;28;20052;-60
2023/12/11 06:37:56;;;;;;;40.20;4.82;;;8.30;99.90;;;;;;5075545;28;20540;-60
2023/12/11 06:40:22;;;;;;;31.48;5.60;;;8.10;99.90;;;;;;5075128;28;20040;-60
2023/12/11 06:42:47;;;;;;;25.08;4.20;;;8.30;99.90;;;;;;5075446;28;20066;-61
2023/12/11 06:45:13;;;;;;;29.55;4.20;;;8.20;99.90;;;;;;5075251;28;20048;-60
2023/12/11 06:47:39;;;;;;;34.80;4.80;;;8.20;99.90;;;;;;5075084;28;20090;-61
2023/12/11 06:50:05;;;;;;;34.28;4.53;;;8.00;99.90;;;;;;5075034;28;20113;-61
2023/12/11 06:52:31;;;;;;;33.80;6.28;;;8.30;99.90;;;;;;5075183;28;20404;-61
2023/12/11 06:54:56;;;;;;;41.38;5.38;;;8.30;99.90;;;;;;5074934;28;20044;-61
2023/12/11 06:57:22;;;;;;;35.63;4.90;;;8.00;99.90;;;;;;5075012;28;20071;-61
2023/12/11 06:59:48;;;;;;;30.05;3.97;;;7.90;99.90;;;;;;5075062;28;20120;-61
2023/12/11 07:02:13;;;;;;;32.65;4.60;;;8.00;99.90;;;;;;5074813;28;20112;-60
2023/12/11 07:04:42;;;;;;;23.67;4.70;;;8.30;99.90;;;;;;5074596;28;20151;-60
2023/12/11 07:07:09;;;;;;;31.40;4.28;;;7.90;99.90;;;;;;5073355;28;20044;-60
2023/12/11 07:09:35;;;;;;;31.35;5.03;;;8.50;99.90;;;;;;5074563;28;20552;-61
2023/12/11 07:12:01;;;;;;;37.58;6.75;;;8.00;99.90;;;;;;5074562;28;20048;-61
2023/12/11 07:14:26;;;;;;;27.98;4.28;;;7.90;99.90;;;;;;5073418;28;20041;-60
2023/12/11 07:16:52;;;;;;;30.25;5.72;;;8.10;99.90;;;;;;5074965;28;20041;-59
2023/12/11 07:19:21;;;;;;;27.77;4.80;;;8.50;99.90;;;;;;5074543;28;20045;-60
2023/12/11 07:21:47;;;;;;;28.17;4.60;;;8.50;99.90;;;;;;5073177;28;20045;-60
2023/12/11 07:24:13;;;;;;;24.50;3.90;;;8.20;99.90;;;;;;5073414;28;20388;-60
2023/12/11 07:26:39;;;;;;;22.85;3.88;;;7.90;99.90;;;;;;5074208;28;20083;-60
2023/12/11 07:29:07;;;;;;;36.40;4.25;;;7.90;99.90;;;;;;5074541;28;20075;-60
2023/12/11 07:31:33;;;;;;;23.65;4.32;;;8.00;99.90;;;;;;5074157;28;20115;-60
2023/12/11 07:33:59;;;;;;;24.55;3.78;;;8.30;99.90;;;;;;5074278;28;20167;-60
2023/12/11 07:36:24;;;;;;;24.75;3.47;;;8.10;99.90;;;;;;5074146;28;20099;-61
2023/12/11 07:38:50;;;;;;;20.45;4.55;;;7.80;99.90;;;;;;5073273;28;20036;-61
2023/12/11 07:41:22;;;;;;;23.80;4.72;;;7.90;99.90;;;;;;5074410;28;20516;-60
2023/12/11 07:43:48;;;;;;;;;;;7.90;99.90;;;;;;5074479;28;20555;-61
2023/12/11 07:46:21;;;;;;;25.25;3.17;;;8.50;99.90;;;;;;5073375;28;20003;-60
2023/12/11 07:48:47;;;;;;;26.55;4.20;;;7.90;99.90;;;;;;5074170;28;20044;-60
2023/12/11 07:51:20;;;;;;;24.63;4.13;;;7.90;99.90;;;;;;5072563;28;20041;-60
2023/12/11 07:53:47;;;;;;;20.80;3.25;;;8.50;99.90;;;;;;5072094;28;20044;-61
2023/12/11 07:56:19;;;;;;;21.95;3.72;;;8.50;99.90;;;;;;5073001;28;20044;-60
2023/12/11 07:58:46;;;;;;;23.80;4.78;;;7.90;99.90;;;;;;5073228;28;20036;-60
2023/12/11 08:01:11;;;;;;;27.70;3.75;;;8.60;99.90;;;;;;5073294;28;20527;-63
2023/12/11 08:03:37;;;;;;;20.85;4.53;;;7.90;99.90;;;;;;5073520;28;20044;-61
2023/12/11 08:06:03;;;;;;;26.80;3.42;;;8.00;99.90;;;;;;5073567;28;20041;-61
2023/12/11 08:08:29;;;;;;;21.45;3.60;;;8.00;99.90;;;;;;5073649;28;20033;-61
2023/12/11 08:10:54;;;;;;;23.10;3.25;;;8.50;99.90;;;;;;5072485;28;20040;-60
2023/12/11 08:13:20;;;;;;;24.92;3.42;;;8.00;99.90;;;;;;5073672;28;20129;-60
2023/12/11 08:15:46;;;;;;;23.95;3.33;;;8.00;99.90;;;;;;5073383;28;20037;-61
2023/12/11 08:18:12;;;;;;;20.45;3.65;;;8.00;99.90;;;;;;5072048;28;20385;-60
2023/12/11 08:20:37;;;;;;;17.02;2.83;;;8.60;99.90;;;;;;5073619;28;20207;-60
2023/12/11 08:23:03;;;;;;;20.58;3.55;;;7.90;99.90;;;;;;5073102;28;20044;-60
2023/12/11 08:25:29;;;;;;;20.48;3.00;;;7.90;99.90;;;;;;5073481;28;20127;-60
2023/12/11 08:27:55;;;;;;;16.42;2.88;;;8.60;99.90;;;;;;5073413;28;20414;-60
2023/12/11 08:30:20;;;;;;;20.90;3.90;;;8.30;99.90;;;;;;5072029;28;20041;-60
2023/12/11 08:32:46;;;;;;;23.08;3.58;;;8.30;99.90;;;;;;5072844;28;20428;-60
2023/12/11 08:35:12;;;;;;;21.15;4.20;;;8.20;99.90;;;;;;5073082;28;20393;-60
2023/12/11 08:37:37;;;;;;;20.80;3.35;;;8.10;99.90;;;;;;5072997;28;20037;-60
2023/12/11 08:40:04;;;;;;;17.20;3.63;;;8.60;99.90;;;;;;5072946;28;20135;-60
2023/12/11 08:42:35;;;;;;;23.92;4.55;;;8.60;99.90;;;;;;5073229;28;20425;-61
2023/12/11 08:45:01;;;;;;;25.73;5.05;;;8.70;99.90;;;;;;5073079;28;20093;-60
2023/12/11 08:47:27;;;;;;;17.30;3.53;;;7.90;99.90;;;;;;5072697;28;20036;-60
2023/12/11 08:49:54;;;;;;;18.90;3.45;;;8.70;99.90;;;;;;5072626;28;20040;-60
2023/12/11 08:52:19;;;;;;;23.08;3.15;;;8.70;99.90;;;;;;5072377;28;20047;-60
2023/12/11 08:54:45;;;;;;;16.33;3.30;;;8.60;99.90;;;;;;5072365;28;20045;-60
2023/12/11 08:57:11;;;;;;;23.55;4.25;;;8.20;99.90;;;;;;5070672;28;20036;-60
2023/12/11 08:59:37;;;;;;;18.77;4.43;;;7.90;99.90;;;;;;5072757;28;20366;-63
2023/12/11 09:02:03;;;;;;;18.75;3.97;;;8.00;99.90;;;;;;5072207;28;20115;-60
2023/12/11 09:04:29;;;;;;;18.90;4.65;;;8.50;99.90;;;;;;5072579;28;20115;-59
2023/12/11 09:06:54;;;;;;;14.98;4.45;;;8.40;99.90;;;;;;5072550;28;20048;-60
2023/12/11 09:09:20;;;;;;;18.65;3.72;;;8.00;99.90;;;;;;5071209;28;20124;-59
2023/12/11 09:11:46;;;;;;;19.08;3.20;;;8.60;99.90;;;;;;5072410;28;20388;-59
2023/12/11 09:14:11;;;;;;;16.77;4.15;;;8.80;99.90;;;;;;5072159;28;20102;-60
2023/12/11 09:16:37;;;;;;;25.10;5.32;;;8.80;99.90;;;;;;5071858;28;20457;-59
2023/12/11 09:19:03;;;;;;;18.38;3.45;;;8.80;99.90;;;;;;5072099;28;20041;-60
2023/12/11 09:21:28;;;;;;;16.02;3.40;;;8.20;99.90;;;;;;5072194;28;20064;-60
2023/12/11 09:23:54;;;;;;;22.30;4.32;;;8.80;99.90;;;;;;5072194;28;20032;-60
2023/12/11 09:26:20;;;;;;;13.38;4.07;;;8.60;99.90;;;;;;5072185;28;20195;-60
2023/12/11 09:28:45;;;;;;;19.52;3.70;;;7.90;99.90;;;;;;5072429;28;20123;-60
2023/12/11 09:31:11;;;;;;;15.73;3.20;;;8.60;99.90;;;;;;5070706;28;20052;-60
2023/12/11 09:33:40;;;;;;;22.73;4.78;;;8.80;99.90;;;;;;5071938;28;20134;-60
2023/12/11 09:36:06;;;;;;;21.92;5.28;;;8.60;99.90;;;;;;5072158;28;20044;-60
2023/12/11 09:38:32;;;;;;;24.90;4.28;;;9.00;99.90;;;;;;5072105;28;20051;-60
2023/12/11 09:40:59;;;;;;;24.60;3.70;;;8.20;99.90;;;;;;5071571;28;20040;-60
2023/12/11 09:43:25;;;;;;;27.45;5.15;;;8.90;99.90;;;;;;5071831;28;20098;-65
2023/12/11 09:45:52;;;;;;;24.55;3.53;;;8.60;99.90;;;;;;5071943;28;20605;-59
2023/12/11 09:48:18;;;;;;;27.55;4.35;;;8.20;99.90;;;;;;5071626;28;20071;-59
2023/12/11 09:50:44;;;;;;;20.60;3.97;;;9.00;99.90;;;;;;5071601;28;20037;-59
2023/12/11 09:53:10;;;;;;;20.73;3.92;;;8.40;99.90;;;;;;5071557;28;20042;-62
2023/12/11 09:55:36;;;;;;;22.83;3.55;;;8.90;99.90;;;;;;5071333;28;20033;-60
2023/12/11 09:58:03;;;;;;;19.80;3.22;;;8.30;99.90;;;;;;5070373;28;20102;-60
2023/12/11 10:00:29;;;;;;;19.75;4.28;;;8.40;99.90;;;;;;5071492;28;20512;-60
2023/12/11 10:02:55;;;;;;;20.50;2.65;;;9.10;99.90;;;;;;5071737;28;20072;-60
2023/12/11 10:05:25;;;;;;;17.65;2.75;;;8.90;99.90;;;;;;5071779;28;20123;-62
2023/12/11 10:07:51;;;;;;;16.60;2.10;;;8.70;99.90;;;;;;5071584;28;20032;-61
2023/12/11 10:10:25;;;;;;;19.55;2.75;;;8.00;99.90;;;;;;5073867;28;20051;-63
2023/12/11 10:12:53;;;;;;;14.52;1.80;;;8.10;99.90;;;;;;5075687;28;20157;-62
2023/12/11 10:15:27;;;;;;;10.40;1.83;;;8.10;99.90;;;;;;5075707;28;20110;-60
2023/12/11 10:18:11;;;;;;;15.13;2.67;;;8.40;99.90;;;;;;5075438;28;20036;-59
2023/12/11 10:20:39;;;;;;;11.13;1.75;;;8.90;99.90;;;;;;5075256;28;20047;-60
2023/12/11 10:23:20;;;;;;;12.70;2.42;;;7.80;99.90;;;;;;5075593;28;20637;-60
2023/12/11 10:25:48;;;;;;;15.07;1.98;;;8.90;99.90;;;;;;5075419;28;20041;-60
2023/12/11 10:28:17;;;;;;;16.85;2.25;;;8.50;99.90;;;;;;5075525;28;20051;-59
2023/12/11 10:30:58;;;;;;;13.32;2.00;;;7.90;99.90;;;;;;5074998;28;20040;-60
2023/12/11 10:33:25;;;;;;;17.70;2.72;;;9.10;99.90;;;;;;5074900;28;20074;-59
2023/12/11 10:35:51;;;;;;;17.08;2.13;;;8.40;99.90;;;;;;5074981;28;20125;-59
2023/12/11 10:38:25;;;;;;;14.05;1.75;;;8.10;99.90;;;;;;5075069;28;20048;-60
2023/12/11 10:40:52;;;;;;;17.00;2.50;;;8.10;99.90;;;;;;5073986;28;20039;-60
2023/12/11 10:43:18;;;;;;;16.95;2.53;;;9.10;99.90;;;;;;5075290;28;20110;-60
2023/12/11 10:45:45;;;;;;;16.65;2.17;;;9.20;99.90;;;;;;5074922;28;20047;-59
2023/12/11 10:48:11;;;;;;;23.17;2.83;;;8.40;99.90;;;;;;5075070;28;20388;-60
2023/12/11 10:50:37;;;;;;;15.55;2.35;;;8.90;99.90;;;;;;5075000;28;20052;-59
2023/12/11 10:53:03;;;;;;;16.73;2.17;;;8.40;99.90;;;;;;5074898;28;20480;-60
2023/12/11 10:55:33;;;;;;;20.95;3.17;;;9.20;99.90;;;;;;5073328;28;20052;-60
2023/12/11 10:58:02;;;;;;;20.42;3.03;;;8.60;99.90;;;;;;5074677;28;20076;-59
2023/12/11 11:00:30;;;;;;;15.40;2.03;;;9.10;99.90;;;;;;5074702;28;20119;-60
2023/12/11 11:02:57;;;;;;;19.15;2.28;;;8.60;99.90;;;;;;5074394;28;20472;-59
2023/12/11 11:05:25;;;;;;;21.88;2.92;;;9.00;99.90;;;;;;5074416;28;20044;-60
2023/12/11 11:08:01;;;;;;;20.05;2.22;;;9.00;99.90;;;;;;5074391;28;20511;-59
2023/12/11 11:10:39;;;;;;;16.27;4.63;;;9.00;99.90;;;;;;5072971;28;20131;-59
2023/12/11 11:13:33;;;;;;;16.58;2.92;;;9.00;99.90;;;;;;5074530;28;20044;-60
2023/12/11 11:15:59;;;;;;;17.80;2.33;;;8.90;99.90;;;;;;5074153;28;20559;-59
2023/12/11 11:18:24;;;;;;;16.88;1.98;;;9.00;99.90;;;;;;5074322;28;20124;-60
2023/12/11 11:21:12;;;;;;;20.85;2.47;;;8.70;99.90;;;;;;5073386;28;20047;-59
2023/12/11 11:23:42;;;;;;;11.63;2.03;;;8.60;99.90;;;;;;5074474;28;20068;-60
2023/12/11 11:26:34;;;;;;;11.68;1.77;;;8.80;99.90;;;;;;5072843;28;20381;-59
2023/12/11 11:29:03;;;;;;;11.20;1.57;;;8.80;99.90;;;;;;5074054;28;20044;-59
2023/12/11 11:31:52;;;;;;;9.20;1.20;;;8.50;99.90;;;;;;5074072;28;20048;-59
2023/12/11 11:34:39;;;;;;;8.55;1.92;;;8.50;99.90;;;;;;5073747;28;20149;-60
2023/12/11 11:37:13;;;;;;;15.32;1.80;;;8.50;99.90;;;;;;5073704;28;20068;-60
2023/12/11 11:39:59;;;;;;;11.10;1.25;;;8.50;99.90;;;;;;5072821;28;20033;-59
2023/12/11 11:42:26;;;;;;;9.85;1.48;;;8.30;99.90;;;;;;5073701;28;20074;-59
2023/12/11 11:45:00;;;;;;;11.18;1.33;;;8.40;99.90;;;;;;5073651;28;20109;-59
2023/12/11 11:47:27;;;;;;;8.50;1.25;;;8.30;99.90;;;;;;5073497;28;20044;-59
2023/12/11 11:49:53;;;;;;;12.20;1.40;;;8.50;99.90;;;;;;5073702;28;20374;-60
2023/12/11 11:52:25;;;;;;;13.70;1.60;;;8.40;99.90;;;;;;5073984;28;20396;-60
2023/12/11 11:55:17;;;;;;;13.65;1.20;;;8.50;99.90;;;;;;5073534;28;20045;-59
2023/12/11 11:57:43;;;;;;;9.57;1.67;;;8.50;99.90;;;;;;5070626;28;20102;-60
2023/12/11 12:00:09;;;;;;;8.63;2.83;;;8.50;99.90;;;;;;5073604;28;20052;-60
2023/12/11 12:02:34;;;;;;;6.15;1.05;;;8.50;99.90;;;;;;5073539;28;20098;-60
2023/12/11 12:05:10;;;;;;;9.13;1.45;;;8.50;99.90;;;;;;5073730;28;20041;-60
2023/12/11 12:07:39;;;;;;;8.38;1.40;;;8.60;99.90;;;;;;5073391;28;20040;-60
2023/12/11 12:10:07;;;;;;;9.63;1.90;;;8.60;99.90;;;;;;5073460;28;20036;-58
2023/12/11 12:12:32;;;;;;;12.57;3.08;;;8.60;99.90;;;;;;5073682;28;20044;-59
2023/12/11 12:15:07;;;;;;;10.32;1.73;;;8.70;99.90;;;;;;5072100;28;20067;-60
2023/12/11 12:17:33;;;;;;;14.63;2.30;;;8.70;99.90;;;;;;5073383;28;20036;-60
2023/12/11 12:20:08;;;;;;;15.50;2.78;;;8.60;99.90;;;;;;5072968;28;20044;-59
2023/12/11 12:22:34;;;;;;;16.02;2.55;;;8.70;99.90;;;;;;5071661;28;20067;-60
2023/12/11 12:25:00;;;;;;;15.25;2.33;;;8.50;99.90;;;;;;5072770;28;20062;-59
2023/12/11 12:27:26;;;;;;;16.48;2.08;;;8.40;99.90;;;;;;5072790;28;20045;-60
2023/12/11 12:29:53;;;;;;;17.00;2.47;;;8.40;99.90;;;;;;5072849;28;20420;-60
2023/12/11 12:32:19;;;;;;;13.68;2.33;;;8.40;99.90;;;;;;5072397;28;20063;-60
2023/12/11 12:34:47;;;;;;;15.23;2.60;;;8.30;99.90;;;;;;5072657;28;20094;-60
2023/12/11 12:37:14;;;;;;;12.32;2.20;;;8.40;99.90;;;;;;5072803;28;20041;-60
2023/12/11 12:39:41;;;;;;;12.68;2.47;;;8.40;99.90;;;;;;5072716;28;20044;-60
2023/12/11 12:42:07;;;;;;;19.67;3.95;;;8.20;99.90;;;;;;5072397;28;20382;-60
2023/12/11 12:44:39;;;;;;;10.88;1.80;;;8.30;99.90;;;;;;5072642;28;20051;-60
2023/12/11 12:47:08;;;;;;;11.75;1.50;;;8.10;99.90;;;;;;5071083;28;20044;-60